Flight Track Log - Related Links

Times and Time Zones

All times are in EST time to prevent confusion due to time zone crossing. See the FLG4262 flight status page for this flight to view local times or setup timezone preferences in your user account.

Time Position Orientation Groundspeed Altitude Reporting Facility
EST Latitude Longitude Course Direction KTS MPH feet Rate Location/Type
Mon 07:37:05 PM 42.1636 -75.9661 287° West 173 199 3,500  Level New York Center
Mon 07:38:05 PM 42.1467 -76.0208 247° West 182 209 5,600 2,600 Climbing New York Center
Mon 07:39:05 PM 42.1722 -76.1011 293° West 200 230 8,700 2,322 Climbing New York Center
Mon 07:41:24 PM 42.2403 -76.3172 293° West 300 345 13,300 1,821 Climbing Cleveland Center
Mon 07:42:00 PM 42.2224 -76.4359 287° West  Level Estimated
Mon 07:42:26 PM 42.2733 -76.4269 292° West 327 376 14,800  Level Cleveland Center
Mon 07:43:28 PM 42.3169 -76.5689 293° West 339 390 16,600 1,512 Climbing Cleveland Center
Mon 07:44:29 PM 42.3547 -76.6908 293° West 351 404 17,900 1,366 Climbing Cleveland Center
Mon 07:45:31 PM 42.3925 -76.8128 293° West 352 405 19,400 1,452 Climbing Cleveland Center
Mon 07:46:33 PM 42.4286 -76.9331 292° West 347 399 20,900 1,610 Climbing Cleveland Center
Mon 07:47:34 PM 42.4639 -77.0500 292° West 342 394 22,700 1,854 Climbing Cleveland Center
Mon 07:48:36 PM 42.4986 -77.1625 293° West 330 380 24,700 1,839 Climbing Cleveland Center
Mon 07:49:38 PM 42.5300 -77.2717 291° West 319 367 26,500 1,171 Climbing Cleveland Center
Mon 07:50:39 PM 42.5711 -77.4078 292° West 322 371 27,100 585 Climbing Cleveland Center
Mon 07:51:41 PM 42.6017 -77.5119 292° West 338 389 27,700 774 Climbing Cleveland Center
Mon 07:52:43 PM 42.6189 -77.6342 281° West 337 388 28,700 1,065 Climbing Cleveland Center
Mon 07:53:45 PM 42.6272 -77.7808 274° West 328 377 29,900 634 Climbing Cleveland Center
Mon 07:54:46 PM 42.6311 -77.9017 273° West 319 367 30,000 -49 Climbing Cleveland Center
Mon 07:55:48 PM 42.6358 -78.0247 273° West 324 373 29,800 -581 Descending Cleveland Center
Mon 07:56:50 PM 42.6400 -78.1492 273° West 329 379 28,800 -976 Descending Cleveland Center
Mon 07:57:51 PM 42.6447 -78.2767 273° West 337 388 27,800 -1,268 Descending Cleveland Center
Mon 07:58:53 PM 42.6489 -78.4069 273° West 345 397 26,200 -871 Descending Cleveland Center
Mon 07:59:55 PM 42.6539 -78.5378 273° West 347 399 26,000 -98 Descending Cleveland Center
Mon 08:00:56 PM 42.6603 -78.6981 273° West 353 406 26,000  Level Cleveland Center
Mon 08:01:58 PM 42.6631 -78.8322 272° West 357 411 26,000  Level Cleveland Center
Mon 08:03:00 PM 42.6667 -78.9669 272° West 358 412 26,000  Level Cleveland Center
Mon 08:04:01 PM 42.6703 -79.1000 272° West 354 407 26,000  Level Cleveland Center
Mon 08:05:03 PM 42.6750 -79.2356 273° West 360 414 26,000  Level Cleveland Center
Mon 08:06:05 PM 42.6775 -79.3689 272° West 356 410 26,000  Level Cleveland Center
Mon 08:07:07 PM 42.6819 -79.5047 273° West 361 415 26,000  Level Cleveland Center
Mon 08:08:08 PM 42.6856 -79.6675 272° West 361 415 26,000  Level Cleveland Center
Mon 08:09:10 PM 42.6892 -79.8031 272° West 361 415 26,000  Level Cleveland Center
Mon 08:10:12 PM 42.6911 -79.9383 271° West 360 414 26,000  Level Cleveland Center
Mon 08:11:13 PM 42.6917 -80.0742 270° West 356 410 26,000  Level Cleveland Center
Mon 08:12:15 PM 42.6950 -80.2103 272° West 356 410 26,000  Level Cleveland Center
Mon 08:13:17 PM 42.6981 -80.3464 272° West 357 411 26,000  Level Cleveland Center
Mon 08:14:18 PM 42.7008 -80.4819 272° West 356 410 26,000  Level Cleveland Center
Mon 08:15:20 PM 42.7028 -80.6175 271° West 356 410 26,000  Level Cleveland Center
Mon 08:16:22 PM 42.7047 -80.7531 271° West 356 410 26,000  Level Cleveland Center
Mon 08:17:24 PM 42.7033 -80.9086 269° West 351 404 26,000 -49 Level Cleveland Center
Mon 08:18:25 PM 42.6889 -81.0392 261° West 345 397 25,900 -683 Descending Cleveland Center
Mon 08:19:27 PM 42.6739 -81.1700 261° West 348 400 24,600 -1,210 Descending Cleveland Center
Mon 08:20:29 PM 42.6589 -81.3047 261° West 356 410 23,400 -1,161 Descending Cleveland Center
Mon 08:21:31 PM 42.6428 -81.4389 261° West 357 411 22,200 -1,171 Descending Cleveland Center
Mon 08:22:32 PM 42.6281 -81.5700 261° West 352 405 21,000 -1,171 Descending Cleveland Center
Mon 08:23:34 PM 42.6133 -81.6928 261° West 332 382 19,800 -1,161 Descending Cleveland Center
Mon 08:24:36 PM 42.5992 -81.8081 261° West 321 369 18,600 -1,210 Descending Cleveland Center
Mon 08:25:38 PM 42.5819 -81.9517 261° West 321 369 17,300 -1,268 Descending Cleveland Center
Mon 08:26:39 PM 42.5678 -82.0706 261° West 322 371 16,000 -1,171 Descending Cleveland Center
Mon 08:27:41 PM 42.5525 -82.1875 260° West 317 365 14,900 -1,122 Descending Cleveland Center
Mon 08:28:42 PM 42.5386 -82.3156 262° West 315 362 13,700 -1,161 Descending Cleveland Center
Mon 08:28:43 PM 42.5381 -82.3044 94° East 316 364 13,700 -1,143 Level Cleveland Center
Mon 08:29:45 PM 42.5233 -82.4172 260° West 308 354 12,500 -936 Descending Cleveland Center
Mon 08:30:32 PM 42.5153 -82.5022 263° West 242 278 12,000 -492 Descending Cleveland Center
Mon 08:30:46 PM 42.5131 -82.5081 243° Southwest 256 295 12,000  Level Cleveland Center
Mon 08:31:02 PM 42.5081 -82.5436 259° West 245 282 12,000  Level Cleveland Center
Mon 08:31:48 PM 42.4908 -82.5961 246° West 248 285 12,000  Level Cleveland Center
Mon 08:32:15 PM 42.4714 -82.6492 244° Southwest 252 290 12,000 -581 Level Cleveland Center
Mon 08:32:50 PM 42.4617 -82.7000 255° West 249 287 11,400 -1,315 Descending Cleveland Center
Mon 08:33:28 PM 42.4569 -82.7606 264° West 243 280 10,400 -1,452 Descending Cleveland Center
Mon 08:33:52 PM 42.4522 -82.7906 258° West 245 282 9,900 -1,500 Descending Cleveland Center
Mon 08:34:04 PM 42.4489 -82.8161 260° West 245 282 9,500 -1,452 Descending Cleveland Center
Mon 08:34:54 PM 42.4397 -82.8811 259° West 244 281 8,400 -1,433 Descending Cleveland Center
Mon 08:35:11 PM 42.4375 -82.9133 265° West 240 276 7,900 -1,452 Descending Cleveland Center
Mon 08:35:56 PM 42.4308 -82.9686 261° West 239 275 6,900 -1,475 Descending Cleveland Center
Mon 08:36:12 PM 42.4269 -82.9969 259° West 228 262 6,400 -1,636 Descending Cleveland Center
Mon 08:37:13 PM 42.4183 -83.0861 263° West 224 258 4,800 -1,252 Descending Cleveland Center
Mon 08:38:07 PM 42.4064 -83.1608 258° West 221 254 4,000 -397 Descending Cleveland Center
Mon 08:39:14 PM 42.3725 -83.2183 231° Southwest 157 181 4,000 -246 Level Cleveland Center
Mon 08:40:09 PM 42.3369 -83.2472 211° Southwest 162 186 3,500 -649 Descending Cleveland Center
Mon 08:41:05 PM 42.3050 -83.2714 209° Southwest 162 186 2,800 -885 Descending Cleveland Center
Mon 08:41:10 PM 42.2992 -83.2758 209° Southwest 147 169 2,600 -774 Descending Cleveland Center
Mon 08:42:07 PM 42.2742 -83.2950 210° Southwest 140 161 2,000 -689 Descending Cleveland Center
Mon 08:42:11 PM 42.2681 -83.2969 193° South 120 138 1,900 -689 Descending Cleveland Center
Mon 08:43:08 PM 42.2453 -83.3153 211° Southwest 124 143 1,300 -700 Descending Cleveland Center
Mon 08:43:11 PM 42.2389 -83.3211 214° Southwest 120 138 1,200 -97 Descending Cleveland Center
Mon 08:44:10 PM 42.2158 -83.3361 206° Southwest 123 142 1,200  Level Cleveland Center
Mon 08:46:00 PM 42.2000 -83.3500 236° Southwest  Level FlightAware Approximate
Mon 08:53:00 PM 42.2124 -83.3534 236° Southwest  Level Estimated

Login

Don't have an account? Register now (free) for customized features, flight alerts, and more!